sensor_id;sensor_type;location;lat;lon;timestamp;pressure;altitude;pressure_sealevel;temperature;humidity
38466;BME280;24244;51.950;5.902;2023-03-25T00:01:15;100054.59;;;10.53;78.33
38466;BME280;24244;51.950;5.902;2023-03-25T00:03:43;100060.09;;;10.52;78.12
38466;BME280;24244;51.950;5.902;2023-03-25T00:06:18;100061.16;;;10.51;78.04
38466;BME280;24244;51.950;5.902;2023-03-25T00:08:45;100055.84;;;10.51;78.20
38466;BME280;24244;51.950;5.902;2023-03-25T00:11:12;100048.88;;;10.50;78.51
38466;BME280;24244;51.950;5.902;2023-03-25T00:13:38;100054.00;;;10.51;77.98
38466;BME280;24244;51.950;5.902;2023-03-25T00:16:07;100054.19;;;10.50;78.49
38466;BME280;24244;51.950;5.902;2023-03-25T00:18:35;100056.03;;;10.49;78.43
38466;BME280;24244;51.950;5.902;2023-03-25T00:21:04;100044.38;;;10.50;78.64
38466;BME280;24244;51.950;5.902;2023-03-25T00:23:38;100055.22;;;10.49;78.19
38466;BME280;24244;51.950;5.902;2023-03-25T00:26:06;100049.09;;;10.48;78.58
38466;BME280;24244;51.950;5.902;2023-03-25T00:28:34;100045.59;;;10.48;78.52
38466;BME280;24244;51.950;5.902;2023-03-25T00:31:04;100047.44;;;10.47;78.38
38466;BME280;24244;51.950;5.902;2023-03-25T00:33:31;100051.94;;;10.47;78.46
38466;BME280;24244;51.950;5.902;2023-03-25T00:35:58;100049.09;;;10.48;78.47
38466;BME280;24244;51.950;5.902;2023-03-25T00:38:26;100047.44;;;10.47;78.46
38466;BME280;24244;51.950;5.902;2023-03-25T00:41:13;100051.13;;;10.46;78.51
38466;BME280;24244;51.950;5.902;2023-03-25T00:43:44;100046.44;;;10.48;78.49
38466;BME280;24244;51.950;5.902;2023-03-25T00:46:11;100050.91;;;10.48;78.37
38466;BME280;24244;51.950;5.902;2023-03-25T00:48:38;100049.28;;;10.47;78.42
38466;BME280;24244;51.950;5.902;2023-03-25T00:51:05;100042.13;;;10.47;78.37
38466;BME280;24244;51.950;5.902;2023-03-25T00:53:36;100041.31;;;10.47;78.29
38466;BME280;24244;51.950;5.902;2023-03-25T00:56:03;100038.66;;;10.47;78.36
38466;BME280;24244;51.950;5.902;2023-03-25T00:58:32;100042.75;;;10.49;78.21
38466;BME280;24244;51.950;5.902;2023-03-25T01:00:58;100053.56;;;10.48;77.97
38466;BME280;24244;51.950;5.902;2023-03-25T01:03:26;100051.13;;;10.46;78.00
38466;BME280;24244;51.950;5.902;2023-03-25T01:05:54;100054.78;;;10.45;78.30
38466;BME280;24244;51.950;5.902;2023-03-25T01:08:23;100050.28;;;10.46;77.87
38466;BME280;24244;51.950;5.902;2023-03-25T01:10:52;100041.50;;;10.45;77.87
38466;BME280;24244;51.950;5.902;2023-03-25T01:13:21;100046.63;;;10.47;78.27
38466;BME280;24244;51.950;5.902;2023-03-25T01:15:50;100038.84;;;10.45;77.76
38466;BME280;24244;51.950;5.902;2023-03-25T01:18:17;100043.34;;;10.45;77.67
38466;BME280;24244;51.950;5.902;2023-03-25T01:20:44;100030.88;;;10.45;77.72
38466;BME280;24244;51.950;5.902;2023-03-25T01:23:11;100036.00;;;10.47;77.96
38466;BME280;24244;51.950;5.902;2023-03-25T01:25:39;100032.31;;;10.48;77.89
38466;BME280;24244;51.950;5.902;2023-03-25T01:28:06;100041.31;;;10.47;77.55
38466;BME280;24244;51.950;5.902;2023-03-25T01:30:32;100042.56;;;10.44;77.46
38466;BME280;24244;51.950;5.902;2023-03-25T01:33:00;100040.50;;;10.46;77.38
38466;BME280;24244;51.950;5.902;2023-03-25T01:35:27;100040.50;;;10.46;77.52
38466;BME280;24244;51.950;5.902;2023-03-25T01:37:54;100039.66;;;10.46;77.37
38466;BME280;24244;51.950;5.902;2023-03-25T01:40:21;100040.69;;;10.45;77.06
38466;BME280;24244;51.950;5.902;2023-03-25T01:42:51;100035.38;;;10.45;77.17
38466;BME280;24244;51.950;5.902;2023-03-25T01:45:21;100029.28;;;10.44;77.26
38466;BME280;24244;51.950;5.902;2023-03-25T01:47:53;100028.22;;;10.45;77.12
38466;BME280;24244;51.950;5.902;2023-03-25T01:50:23;100028.22;;;10.45;77.14
38466;BME280;24244;51.950;5.902;2023-03-25T01:52:56;100022.09;;;10.45;76.91
38466;BME280;24244;51.950;5.902;2023-03-25T01:55:24;100024.75;;;10.45;77.16
38466;BME280;24244;51.950;5.902;2023-03-25T01:57:55;100025.56;;;10.45;77.26
38466;BME280;24244;51.950;5.902;2023-03-25T02:00:23;100024.97;;;10.43;77.11
38466;BME280;24244;51.950;5.902;2023-03-25T02:02:54;100024.34;;;10.41;76.77
38466;BME280;24244;51.950;5.902;2023-03-25T02:05:31;100023.13;;;10.44;76.99
38466;BME280;24244;51.950;5.902;2023-03-25T02:08:01;100030.28;;;10.43;77.07
38466;BME280;24244;51.950;5.902;2023-03-25T02:10:29;100014.34;;;10.43;77.20
38466;BME280;24244;51.950;5.902;2023-03-25T02:12:56;100021.50;;;10.43;77.13
38466;BME280;24244;51.950;5.902;2023-03-25T02:15:23;100021.50;;;10.43;77.20
38466;BME280;24244;51.950;5.902;2023-03-25T02:18:01;100025.38;;;10.40;76.90
38466;BME280;24244;51.950;5.902;2023-03-25T02:20:51;100020.47;;;10.37;77.03
38466;BME280;24244;51.950;5.902;2023-03-25T02:29:58;100023.50;;;10.28;78.05
38466;BME280;24244;51.950;5.902;2023-03-25T02:35:33;100005.75;;;10.22;78.20
38466;BME280;24244;51.950;5.902;2023-03-25T02:38:12;100014.28;;;10.17;78.42
38466;BME280;24244;51.950;5.902;2023-03-25T02:40:46;100011.00;;;10.15;78.59
38466;BME280;24244;51.950;5.902;2023-03-25T02:43:18;100014.06;;;10.12;78.88
38466;BME280;24244;51.950;5.902;2023-03-25T02:45:50;100007.28;;;10.09;78.93
38466;BME280;24244;51.950;5.902;2023-03-25T02:48:20;100016.31;;;10.08;79.26
38466;BME280;24244;51.950;5.902;2023-03-25T02:50:51;100009.56;;;10.06;79.24
38466;BME280;24244;51.950;5.902;2023-03-25T02:53:24;100005.88;;;10.07;79.07
38466;BME280;24244;51.950;5.902;2023-03-25T02:55:55;99997.28;;;10.05;79.30
38466;BME280;24244;51.950;5.902;2023-03-25T02:58:26;100010.56;;;10.05;79.36
38466;BME280;24244;51.950;5.902;2023-03-25T03:00:55;100007.28;;;10.03;79.34
38466;BME280;24244;51.950;5.902;2023-03-25T03:03:25;100010.94;;;10.02;79.55
38466;BME280;24244;51.950;5.902;2023-03-25T03:05:55;100004.22;;;9.99;79.28
38466;BME280;24244;51.950;5.902;2023-03-25T03:08:42;100003.41;;;9.99;79.58
38466;BME280;24244;51.950;5.902;2023-03-25T03:11:22;100004.41;;;9.98;79.29
38466;BME280;24244;51.950;5.902;2023-03-25T03:14:14;100008.91;;;9.97;79.39
38466;BME280;24244;51.950;5.902;2023-03-25T03:16:48;100007.47;;;9.95;79.76
38466;BME280;24244;51.950;5.902;2023-03-25T03:19:32;100003.41;;;9.92;79.66
38466;BME280;24244;51.950;5.902;2023-03-25T03:22:14;99995.63;;;9.91;80.24
38466;BME280;24244;51.950;5.902;2023-03-25T03:24:47;100006.03;;;9.86;80.20
38466;BME280;24244;51.950;5.902;2023-03-25T03:27:17;99995.78;;;9.82;80.76
38466;BME280;24244;51.950;5.902;2023-03-25T03:29:53;100011.91;;;9.81;80.42
38466;BME280;24244;51.950;5.902;2023-03-25T03:32:27;100011.91;;;9.81;80.51
38466;BME280;24244;51.950;5.902;2023-03-25T03:34:58;100015.81;;;9.78;81.07
38466;BME280;24244;51.950;5.902;2023-03-25T03:37:31;100011.50;;;9.77;81.01
38466;BME280;24244;51.950;5.902;2023-03-25T03:40:03;100015.00;;;9.78;81.17
38466;BME280;24244;51.950;5.902;2023-03-25T03:42:34;100009.06;;;9.76;81.24
38466;BME280;24244;51.950;5.902;2023-03-25T03:45:07;100010.25;;;9.73;81.24
38466;BME280;24244;51.950;5.902;2023-03-25T03:47:39;100008.84;;;9.71;81.48
38466;BME280;24244;51.950;5.902;2023-03-25T03:50:10;100008.03;;;9.70;81.84
38466;BME280;24244;51.950;5.902;2023-03-25T03:52:41;100007.19;;;9.70;81.47
38466;BME280;24244;51.950;5.902;2023-03-25T03:55:15;100007.00;;;9.71;81.45
38466;BME280;24244;51.950;5.902;2023-03-25T03:57:48;99999.03;;;9.71;81.85
38466;BME280;24244;51.950;5.902;2023-03-25T04:00:20;100005.38;;;9.70;81.99
38466;BME280;24244;51.950;5.902;2023-03-25T04:02:54;100008.22;;;9.69;81.85
38466;BME280;24244;51.950;5.902;2023-03-25T04:05:25;100015.97;;;9.70;81.86
38466;BME280;24244;51.950;5.902;2023-03-25T04:07:59;100007.19;;;9.70;81.93
38466;BME280;24244;51.950;5.902;2023-03-25T04:10:33;100006.00;;;9.72;81.90
38466;BME280;24244;51.950;5.902;2023-03-25T04:13:10;100005.38;;;9.70;82.01
38466;BME280;24244;51.950;5.902;2023-03-25T04:15:40;100008.03;;;9.70;81.98
38466;BME280;24244;51.950;5.902;2023-03-25T04:18:07;100008.84;;;9.71;82.20
38466;BME280;24244;51.950;5.902;2023-03-25T04:20:34;100004.53;;;9.70;82.00
38466;BME280;24244;51.950;5.902;2023-03-25T04:23:03;100003.72;;;9.69;82.08
38466;BME280;24244;51.950;5.902;2023-03-25T04:25:36;100007.19;;;9.70;81.97
38466;BME280;24244;51.950;5.902;2023-03-25T04:28:04;100002.09;;;9.68;82.05
38466;BME280;24244;51.950;5.902;2023-03-25T04:30:32;99997.19;;;9.65;82.26
38466;BME280;24244;51.950;5.902;2023-03-25T04:32:59;99998.22;;;9.64;82.18
38466;BME280;24244;51.950;5.902;2023-03-25T04:35:26;99996.38;;;9.65;81.93
38466;BME280;24244;51.950;5.902;2023-03-25T04:37:53;99991.06;;;9.65;81.66
38466;BME280;24244;51.950;5.902;2023-03-25T04:40:23;99999.03;;;9.65;81.90
38466;BME280;24244;51.950;5.902;2023-03-25T04:42:52;99982.28;;;9.64;82.17
38466;BME280;24244;51.950;5.902;2023-03-25T04:45:23;99990.25;;;9.64;82.08
38466;BME280;24244;51.950;5.902;2023-03-25T04:47:51;99974.50;;;9.63;82.01
38466;BME280;24244;51.950;5.902;2023-03-25T04:50:21;99985.94;;;9.63;82.04
38466;BME280;24244;51.950;5.902;2023-03-25T04:52:50;99986.78;;;9.64;82.21
38466;BME280;24244;51.950;5.902;2023-03-25T04:55:20;99983.28;;;9.63;82.10
38466;BME280;24244;51.950;5.902;2023-03-25T04:57:48;99977.16;;;9.63;82.01
38466;BME280;24244;51.950;5.902;2023-03-25T05:00:19;99978.81;;;9.64;82.28
38466;BME280;24244;51.950;5.902;2023-03-25T05:02:47;99972.06;;;9.61;82.16
38466;BME280;24244;51.950;5.902;2023-03-25T05:05:16;99963.91;;;9.63;82.37
38466;BME280;24244;51.950;5.902;2023-03-25T05:07:46;99976.16;;;9.64;81.97
38466;BME280;24244;51.950;5.902;2023-03-25T05:10:15;99971.66;;;9.64;82.03
38466;BME280;24244;51.950;5.902;2023-03-25T05:12:43;99968.81;;;9.66;81.73
38466;BME280;24244;51.950;5.902;2023-03-25T05:15:10;99978.63;;;9.65;81.69
38466;BME280;24244;51.950;5.902;2023-03-25T05:17:42;99972.25;;;9.66;81.84
38466;BME280;24244;51.950;5.902;2023-03-25T05:20:10;99976.38;;;9.69;81.73
38466;BME280;24244;51.950;5.902;2023-03-25T05:22:40;99989.63;;;9.69;81.44
38466;BME280;24244;51.950;5.902;2023-03-25T05:25:09;99992.09;;;9.70;81.26
38466;BME280;24244;51.950;5.902;2023-03-25T05:27:37;99983.50;;;9.68;81.13
38466;BME280;24244;51.950;5.902;2023-03-25T05:30:05;99989.63;;;9.69;81.31
38466;BME280;24244;51.950;5.902;2023-03-25T05:32:33;99999.25;;;9.70;81.22
38466;BME280;24244;51.950;5.902;2023-03-25T05:35:02;99985.16;;;9.69;81.10
38466;BME280;24244;51.950;5.902;2023-03-25T05:37:29;99983.31;;;9.70;81.05
38466;BME280;24244;51.950;5.902;2023-03-25T05:39:56;99999.03;;;9.71;81.07
38466;BME280;24244;51.950;5.902;2023-03-25T05:42:23;99999.88;;;9.72;81.00
38466;BME280;24244;51.950;5.902;2023-03-25T05:44:52;100004.16;;;9.73;81.00
38466;BME280;24244;51.950;5.902;2023-03-25T05:47:20;100012.13;;;9.73;81.03
38466;BME280;24244;51.950;5.902;2023-03-25T05:49:51;100010.47;;;9.72;80.94
38466;BME280;24244;51.950;5.902;2023-03-25T05:52:20;100015.56;;;9.73;80.85
38466;BME280;24244;51.950;5.902;2023-03-25T05:54:57;100022.94;;;9.71;80.95
38466;BME280;24244;51.950;5.902;2023-03-25T05:57:23;100013.13;;;9.72;80.78
38466;BME280;24244;51.950;5.902;2023-03-25T05:59:50;100012.13;;;9.73;80.88
38466;BME280;24244;51.950;5.902;2023-03-25T06:02:17;100014.16;;;9.71;81.02
38466;BME280;24244;51.950;5.902;2023-03-25T06:04:47;100017.63;;;9.71;81.28
38466;BME280;24244;51.950;5.902;2023-03-25T06:07:21;100013.97;;;9.72;81.06
38466;BME280;24244;51.950;5.902;2023-03-25T06:09:50;100006.00;;;9.72;80.73
38466;BME280;24244;51.950;5.902;2023-03-25T06:12:21;100021.28;;;9.70;81.34
38466;BME280;24244;51.950;5.902;2023-03-25T06:14:49;100024.75;;;9.71;81.23
38466;BME280;24244;51.950;5.902;2023-03-25T06:17:21;100037.00;;;9.72;81.09
38466;BME280;24244;51.950;5.902;2023-03-25T06:19:50;100034.38;;;9.72;81.35
38466;BME280;24244;51.950;5.902;2023-03-25T06:22:18;100042.50;;;9.70;81.46
38466;BME280;24244;51.950;5.902;2023-03-25T06:24:49;100033.72;;;9.70;81.49
38466;BME280;24244;51.950;5.902;2023-03-25T06:27:17;100032.91;;;9.69;81.28
38466;BME280;24244;51.950;5.902;2023-03-25T06:29:45;100038.03;;;9.71;81.28
38466;BME280;24244;51.950;5.902;2023-03-25T06:32:13;100035.56;;;9.69;81.10
38466;BME280;24244;51.950;5.902;2023-03-25T06:34:40;100044.34;;;9.70;81.34
38466;BME280;24244;51.950;5.902;2023-03-25T06:37:08;100036.38;;;9.70;81.27
38466;BME280;24244;51.950;5.902;2023-03-25T06:39:35;100038.84;;;9.71;81.31
38466;BME280;24244;51.950;5.902;2023-03-25T06:42:06;100036.78;;;9.73;81.32
38466;BME280;24244;51.950;5.902;2023-03-25T06:44:33;100048.03;;;9.75;81.06
38466;BME280;24244;51.950;5.902;2023-03-25T06:47:00;100045.81;;;9.79;81.06
38466;BME280;24244;51.950;5.902;2023-03-25T06:49:28;100052.78;;;9.80;80.99
38466;BME280;24244;51.950;5.902;2023-03-25T06:51:56;100057.25;;;9.79;80.88
38466;BME280;24244;51.950;5.902;2023-03-25T06:54:24;100043.16;;;9.79;80.74
38466;BME280;24244;51.950;5.902;2023-03-25T06:56:51;100052.56;;;9.81;80.80
38466;BME280;24244;51.950;5.902;2023-03-25T06:59:19;100057.03;;;9.81;80.81
38466;BME280;24244;51.950;5.902;2023-03-25T07:01:46;100049.91;;;9.81;80.60
38466;BME280;24244;51.950;5.902;2023-03-25T07:04:17;100052.34;;;9.83;80.38
38466;BME280;24244;51.950;5.902;2023-03-25T07:06:45;100040.91;;;9.82;80.39
38466;BME280;24244;51.950;5.902;2023-03-25T07:09:12;100053.19;;;9.83;80.48
38466;BME280;24244;51.950;5.902;2023-03-25T07:11:39;100048.50;;;9.86;80.51
38466;BME280;24244;51.950;5.902;2023-03-25T07:14:06;100046.66;;;9.86;80.58
38466;BME280;24244;51.950;5.902;2023-03-25T07:16:34;100041.75;;;9.90;80.52
38466;BME280;24244;51.950;5.902;2023-03-25T07:19:01;100037.91;;;9.92;80.47
38466;BME280;24244;51.950;5.902;2023-03-25T07:21:28;100043.03;;;9.94;80.42
38466;BME280;24244;51.950;5.902;2023-03-25T07:23:55;100040.13;;;9.95;80.32
38466;BME280;24244;51.950;5.902;2023-03-25T07:26:22;100041.97;;;9.95;80.43
38466;BME280;24244;51.950;5.902;2023-03-25T07:28:49;100055.88;;;9.97;80.49
38466;BME280;24244;51.950;5.902;2023-03-25T07:31:15;100046.91;;;9.98;80.63
38466;BME280;24244;51.950;5.902;2023-03-25T07:33:45;100051.19;;;9.99;80.67
38466;BME280;24244;51.950;5.902;2023-03-25T07:36:11;100045.25;;;9.97;80.90
38466;BME280;24244;51.950;5.902;2023-03-25T07:38:39;100057.53;;;9.98;80.80
38466;BME280;24244;51.950;5.902;2023-03-25T07:41:08;100057.53;;;9.98;80.88
38466;BME280;24244;51.950;5.902;2023-03-25T07:43:38;100055.69;;;9.98;80.98
38466;BME280;24244;51.950;5.902;2023-03-25T07:46:06;100070.41;;;10.01;81.32
38466;BME280;24244;51.950;5.902;2023-03-25T07:48:34;100067.75;;;10.01;81.08
38466;BME280;24244;51.950;5.902;2023-03-25T07:51:04;100064.88;;;10.02;80.94
38466;BME280;24244;51.950;5.902;2023-03-25T07:53:31;100076.53;;;10.01;81.16
38466;BME280;24244;51.950;5.902;2023-03-25T07:55:58;100064.88;;;10.02;81.31
38466;BME280;24244;51.950;5.902;2023-03-25T07:58:26;100071.00;;;10.03;81.55
38466;BME280;24244;51.950;5.902;2023-03-25T08:00:55;100068.16;;;10.04;81.42
38466;BME280;24244;51.950;5.902;2023-03-25T08:03:22;100076.94;;;10.05;81.57
38466;BME280;24244;51.950;5.902;2023-03-25T08:05:49;100080.41;;;10.05;81.68
38466;BME280;24244;51.950;5.902;2023-03-25T08:08:18;100082.06;;;10.06;81.66
38466;BME280;24244;51.950;5.902;2023-03-25T08:10:44;100078.78;;;10.04;81.84
38466;BME280;24244;51.950;5.902;2023-03-25T08:13:13;100079.78;;;10.03;81.73
38466;BME280;24244;51.950;5.902;2023-03-25T08:15:40;100079.97;;;10.02;82.23
38466;BME280;24244;51.950;5.902;2023-03-25T08:18:07;100096.31;;;9.99;82.53
38466;BME280;24244;51.950;5.902;2023-03-25T08:20:34;100087.72;;;9.97;82.72
38466;BME280;24244;51.950;5.902;2023-03-25T08:23:01;100083.88;;;9.99;82.82
38466;BME280;24244;51.950;5.902;2023-03-25T08:25:30;100096.72;;;10.02;82.73
38466;BME280;24244;51.950;5.902;2023-03-25T08:27:57;100087.38;;;10.06;82.95
38466;BME280;24244;51.950;5.902;2023-03-25T08:30:24;100085.75;;;10.12;83.10
38466;BME280;24244;51.950;5.902;2023-03-25T08:32:51;100088.66;;;10.17;82.96
38466;BME280;24244;51.950;5.902;2023-03-25T08:35:21;100088.88;;;10.22;83.16
38466;BME280;24244;51.950;5.902;2023-03-25T08:37:48;100098.06;;;10.26;82.97
38466;BME280;24244;51.950;5.902;2023-03-25T08:40:15;100089.50;;;10.31;82.83
38466;BME280;24244;51.950;5.902;2023-03-25T08:42:47;100097.91;;;10.34;82.64
38466;BME280;24244;51.950;5.902;2023-03-25T08:45:14;100088.72;;;10.37;82.74
38466;BME280;24244;51.950;5.902;2023-03-25T08:47:42;100099.75;;;10.40;82.36
38466;BME280;24244;51.950;5.902;2023-03-25T08:50:09;100104.69;;;10.43;82.45
38466;BME280;24244;51.950;5.902;2023-03-25T08:52:37;100100.38;;;10.42;82.27
38466;BME280;24244;51.950;5.902;2023-03-25T08:55:04;100094.03;;;10.43;82.68
38466;BME280;24244;51.950;5.902;2023-03-25T08:57:36;100093.41;;;10.41;82.48
38466;BME280;24244;51.950;5.902;2023-03-25T09:00:06;100101.00;;;10.44;82.64
38466;BME280;24244;51.950;5.902;2023-03-25T09:02:40;100102.63;;;10.45;82.89
38466;BME280;24244;51.950;5.902;2023-03-25T09:05:14;100106.91;;;10.46;83.21
38466;BME280;24244;51.950;5.902;2023-03-25T09:07:42;100106.91;;;10.46;83.44
38466;BME280;24244;51.950;5.902;2023-03-25T09:10:09;100107.53;;;10.48;83.11
38466;BME280;24244;51.950;5.902;2023-03-25T09:12:36;100105.50;;;10.50;83.14
38466;BME280;24244;51.950;5.902;2023-03-25T09:15:05;100098.13;;;10.52;83.16
38466;BME280;24244;51.950;5.902;2023-03-25T09:17:35;100087.94;;;10.56;83.09
38466;BME280;24244;51.950;5.902;2023-03-25T09:20:02;100088.31;;;10.59;83.19
38466;BME280;24244;51.950;5.902;2023-03-25T09:22:29;100094.28;;;10.62;83.34
38466;BME280;24244;51.950;5.902;2023-03-25T09:24:56;100096.53;;;10.65;83.24
38466;BME280;24244;51.950;5.902;2023-03-25T09:27:23;100093.44;;;10.68;82.92
38466;BME280;24244;51.950;5.902;2023-03-25T09:29:50;100099.41;;;10.70;82.83
38466;BME280;24244;51.950;5.902;2023-03-25T09:32:18;100094.69;;;10.72;82.76
38466;BME280;24244;51.950;5.902;2023-03-25T09:34:46;100097.13;;;10.73;82.68
38466;BME280;24244;51.950;5.902;2023-03-25T09:37:14;100092.03;;;10.78;82.51
38466;BME280;24244;51.950;5.902;2023-03-25T09:39:41;100092.44;;;10.82;82.81
38466;BME280;24244;51.950;5.902;2023-03-25T09:42:32;100090.41;;;10.84;82.43
38466;BME280;24244;51.950;5.902;2023-03-25T09:45:14;100103.31;;;10.87;82.23
38466;BME280;24244;51.950;5.902;2023-03-25T09:47:53;100106.16;;;10.92;82.37
38466;BME280;24244;51.950;5.902;2023-03-25T09:50:23;100109.63;;;10.99;82.16
38466;BME280;24244;51.950;5.902;2023-03-25T09:52:55;100122.50;;;11.02;82.34
38466;BME280;24244;51.950;5.902;2023-03-25T09:55:25;100117.63;;;11.06;82.10
38466;BME280;24244;51.950;5.902;2023-03-25T09:57:58;100125.16;;;11.09;82.25
38466;BME280;24244;51.950;5.902;2023-03-25T10:00:26;100127.44;;;11.12;81.98
38466;BME280;24244;51.950;5.902;2023-03-25T10:03:01;100122.94;;;11.12;82.12
38466;BME280;24244;51.950;5.902;2023-03-25T10:05:49;100126.81;;;11.16;82.12
38466;BME280;24244;51.950;5.902;2023-03-25T10:08:25;100128.03;;;11.20;81.83
38466;BME280;24244;51.950;5.902;2023-03-25T10:11:03;100109.63;;;11.25;82.24
38466;BME280;24244;51.950;5.902;2023-03-25T10:13:39;100125.78;;;11.30;82.07
38466;BME280;24244;51.950;5.902;2023-03-25T10:16:22;100123.09;;;11.37;82.07
38466;BME280;24244;51.950;5.902;2023-03-25T10:19:02;100117.78;;;11.44;81.87
38466;BME280;24244;51.950;5.902;2023-03-25T10:21:37;100126.38;;;11.46;81.35
38466;BME280;24244;51.950;5.902;2023-03-25T10:24:14;100128.22;;;11.45;81.50
38466;BME280;24244;51.950;5.902;2023-03-25T10:26:45;100122.69;;;11.47;81.68
38466;BME280;24244;51.950;5.902;2023-03-25T10:29:15;100127.19;;;11.46;81.18
38466;BME280;24244;51.950;5.902;2023-03-25T10:31:50;100129.47;;;11.43;81.09
38466;BME280;24244;51.950;5.902;2023-03-25T10:34:25;100134.97;;;11.41;81.49
38466;BME280;24244;51.950;5.902;2023-03-25T10:36:57;100131.91;;;11.37;81.50
38466;BME280;24244;51.950;5.902;2023-03-25T10:39:30;100118.00;;;11.35;81.71
38466;BME280;24244;51.950;5.902;2023-03-25T10:42:13;100131.31;;;11.35;81.83
38466;BME280;24244;51.950;5.902;2023-03-25T10:44:43;100128.66;;;11.35;82.21
38466;BME280;24244;51.950;5.902;2023-03-25T10:47:15;100143.59;;;11.36;82.76
38466;BME280;24244;51.950;5.902;2023-03-25T10:49:46;100152.19;;;11.32;82.17
38466;BME280;24244;51.950;5.902;2023-03-25T10:52:15;100153.81;;;11.26;82.03
38466;BME280;24244;51.950;5.902;2023-03-25T10:54:45;100138.50;;;11.22;82.63
38466;BME280;24244;51.950;5.902;2023-03-25T10:57:18;100137.03;;;11.13;82.07
38466;BME280;24244;51.950;5.902;2023-03-25T10:59:56;100138.47;;;11.02;82.13
38466;BME280;24244;51.950;5.902;2023-03-25T11:02:27;100141.94;;;10.96;82.35
38466;BME280;24244;51.950;5.902;2023-03-25T11:04:59;100137.63;;;10.95;82.84
38466;BME280;24244;51.950;5.902;2023-03-25T11:07:29;100147.47;;;10.94;83.24
38466;BME280;24244;51.950;5.902;2023-03-25T11:10:09;100151.97;;;10.94;83.29
38466;BME280;24244;51.950;5.902;2023-03-25T11:12:39;100148.91;;;10.97;83.67
38466;BME280;24244;51.950;5.902;2023-03-25T11:15:13;100155.03;;;10.97;83.74
38466;BME280;24244;51.950;5.902;2023-03-25T11:17:41;100152.56;;;10.96;83.59
38466;BME280;24244;51.950;5.902;2023-03-25T11:20:17;100150.94;;;10.95;83.52
38466;BME280;24244;51.950;5.902;2023-03-25T11:22:48;100149.31;;;10.94;83.62
38466;BME280;24244;51.950;5.902;2023-03-25T11:25:19;100142.75;;;10.96;83.65
38466;BME280;24244;51.950;5.902;2023-03-25T11:27:51;100147.88;;;10.98;83.82
38466;BME280;24244;51.950;5.902;2023-03-25T11:30:20;100146.88;;;10.99;84.32
38466;BME280;24244;51.950;5.902;2023-03-25T11:32:56;100137.44;;;11.03;84.37
38466;BME280;24244;51.950;5.902;2023-03-25T11:35:27;100144.41;;;11.11;84.39
38466;BME280;24244;51.950;5.902;2023-03-25T11:37:56;100143.38;;;11.18;84.74
38466;BME280;24244;51.950;5.902;2023-03-25T11:40:24;100147.69;;;11.26;84.72
38466;BME280;24244;51.950;5.902;2023-03-25T11:42:53;100161.41;;;11.36;84.67
38466;BME280;24244;51.950;5.902;2023-03-25T11:45:23;100142.34;;;11.46;84.06
38466;BME280;24244;51.950;5.902;2023-03-25T11:47:51;100147.06;;;11.50;83.01
38466;BME280;24244;51.950;5.902;2023-03-25T11:50:27;100151.31;;;11.51;83.20
38466;BME280;24244;51.950;5.902;2023-03-25T11:53:02;100154.00;;;11.51;82.74
38466;BME280;24244;51.950;5.902;2023-03-25T11:55:34;100164.44;;;11.53;82.54
38466;BME280;24244;51.950;5.902;2023-03-25T11:58:02;100166.50;;;11.51;82.05
38466;BME280;24244;51.950;5.902;2023-03-25T12:00:36;100171.41;;;11.54;82.16
38466;BME280;24244;51.950;5.902;2023-03-25T12:03:05;100168.53;;;11.55;82.09
38466;BME280;24244;51.950;5.902;2023-03-25T12:05:33;100172.22;;;11.61;81.88
38466;BME280;24244;51.950;5.902;2023-03-25T12:08:08;100170.97;;;11.63;81.77
38466;BME280;24244;51.950;5.902;2023-03-25T12:10:47;100158.25;;;11.65;80.99
38466;BME280;24244;51.950;5.902;2023-03-25T12:13:22;100147.41;;;11.67;80.78
38466;BME280;24244;51.950;5.902;2023-03-25T12:16:00;100148.66;;;11.71;80.96
38466;BME280;24244;51.950;5.902;2023-03-25T12:18:51;100139.41;;;11.73;80.24
38466;BME280;24244;51.950;5.902;2023-03-25T12:21:31;100137.00;;;11.79;80.32
38466;BME280;24244;51.950;5.902;2023-03-25T12:24:16;100137.59;;;11.81;80.40
38466;BME280;24244;51.950;5.902;2023-03-25T12:26:52;100129.59;;;11.81;79.46
38466;BME280;24244;51.950;5.902;2023-03-25T12:29:30;100126.31;;;11.85;79.64
38466;BME280;24244;51.950;5.902;2023-03-25T12:32:06;100122.63;;;11.86;79.38
38466;BME280;24244;51.950;5.902;2023-03-25T12:34:46;100124.25;;;11.87;78.83
38466;BME280;24244;51.950;5.902;2023-03-25T12:37:26;100125.69;;;11.90;79.06
38466;BME280;24244;51.950;5.902;2023-03-25T12:40:13;100113.56;;;11.94;78.45
38466;BME280;24244;51.950;5.902;2023-03-25T12:42:47;100118.47;;;11.97;78.33
38466;BME280;24244;51.950;5.902;2023-03-25T12:45:27;100125.81;;;12.01;78.24
38466;BME280;24244;51.950;5.902;2023-03-25T12:48:04;100127.22;;;12.10;77.93
38466;BME280;24244;51.950;5.902;2023-03-25T12:50:48;100117.53;;;12.23;77.99
38466;BME280;24244;51.950;5.902;2023-03-25T12:53:37;100119.97;;;12.31;76.71
38466;BME280;24244;51.950;5.902;2023-03-25T12:56:25;100133.91;;;12.33;76.50
38466;BME280;24244;51.950;5.902;2023-03-25T12:59:30;100150.34;;;12.23;77.38
38466;BME280;24244;51.950;5.902;2023-03-25T13:02:12;100150.41;;;12.03;77.73
38466;BME280;24244;51.950;5.902;2023-03-25T13:05:04;100153.16;;;11.84;77.82
38466;BME280;24244;51.950;5.902;2023-03-25T13:07:47;100155.19;;;11.68;78.41
38466;BME280;24244;51.950;5.902;2023-03-25T13:10:19;100156.66;;;11.58;78.43
38466;BME280;24244;51.950;5.902;2023-03-25T13:12:50;100164.88;;;11.50;78.98
38466;BME280;24244;51.950;5.902;2023-03-25T13:15:19;100171.41;;;11.41;79.40
38466;BME280;24244;51.950;5.902;2023-03-25T13:18:02;100161.78;;;11.33;79.61
38466;BME280;24244;51.950;5.902;2023-03-25T13:20:35;100156.28;;;11.28;79.72
38466;BME280;24244;51.950;5.902;2023-03-25T13:23:07;100160.59;;;11.29;80.28
38466;BME280;24244;51.950;5.902;2023-03-25T13:25:46;100173.88;;;11.35;80.64